sensor_id;sensor_type;location;lat;lon;timestamp;P1;durP1;ratioP1;P2;durP2;ratioP2
9409;SDS011;4744;52.576;13.568;2024-03-29T00:01:06;1.38;;;0.40;;
9409;SDS011;4744;52.576;13.568;2024-03-29T00:03:31;2.33;;;0.60;;
9409;SDS011;4744;52.576;13.568;2024-03-29T00:05:57;0.73;;;0.40;;
9409;SDS011;4744;52.576;13.568;2024-03-29T00:08:23;0.88;;;0.45;;
9409;SDS011;4744;52.576;13.568;2024-03-29T00:10:49;0.38;;;0.32;;
9409;SDS011;4744;52.576;13.568;2024-03-29T00:13:17;1.05;;;0.68;;
9409;SDS011;4744;52.576;13.568;2024-03-29T00:15:45;2.47;;;0.50;;
9409;SDS011;4744;52.576;13.568;2024-03-29T00:18:11;1.20;;;0.40;;
9409;SDS011;4744;52.576;13.568;2024-03-29T00:20:38;1.50;;;0.50;;
9409;SDS011;4744;52.576;13.568;2024-03-29T00:23:04;1.40;;;0.38;;
9409;SDS011;4744;52.576;13.568;2024-03-29T00:25:30;2.03;;;0.45;;
9409;SDS011;4744;52.576;13.568;2024-03-29T00:27:56;1.20;;;0.40;;
9409;SDS011;4744;52.576;13.568;2024-03-29T00:30:24;2.53;;;0.60;;
9409;SDS011;4744;52.576;13.568;2024-03-29T00:32:50;2.67;;;0.55;;
9409;SDS011;4744;52.576;13.568;2024-03-29T00:35:16;3.45;;;0.70;;
9409;SDS011;4744;52.576;13.568;2024-03-29T00:37:42;0.60;;;0.45;;
9409;SDS011;4744;52.576;13.568;2024-03-29T00:40:09;4.30;;;0.70;;
9409;SDS011;4744;52.576;13.568;2024-03-29T00:42:36;1.52;;;0.40;;
9409;SDS011;4744;52.576;13.568;2024-03-29T00:45:02;1.88;;;0.50;;
9409;SDS011;4744;52.576;13.568;2024-03-29T00:47:29;1.83;;;0.45;;
9409;SDS011;4744;52.576;13.568;2024-03-29T00:49:55;1.73;;;0.50;;
9409;SDS011;4744;52.576;13.568;2024-03-29T00:52:21;1.98;;;0.70;;
9409;SDS011;4744;52.576;13.568;2024-03-29T00:54:47;1.42;;;0.43;;
9409;SDS011;4744;52.576;13.568;2024-03-29T00:57:13;1.15;;;0.50;;
9409;SDS011;4744;52.576;13.568;2024-03-29T00:59:39;1.17;;;0.45;;
9409;SDS011;4744;52.576;13.568;2024-03-29T01:02:05;0.82;;;0.32;;
9409;SDS011;4744;52.576;13.568;2024-03-29T01:04:32;0.68;;;0.50;;
9409;SDS011;4744;52.576;13.568;2024-03-29T01:06:58;1.10;;;0.40;;
9409;SDS011;4744;52.576;13.568;2024-03-29T01:09:24;0.40;;;0.40;;
9409;SDS011;4744;52.576;13.568;2024-03-29T01:11:50;1.35;;;0.43;;
9409;SDS011;4744;52.576;13.568;2024-03-29T01:14:16;1.27;;;0.40;;
9409;SDS011;4744;52.576;13.568;2024-03-29T01:16:42;0.35;;;0.35;;
9409;SDS011;4744;52.576;13.568;2024-03-29T01:19:08;2.30;;;0.40;;
9409;SDS011;4744;52.576;13.568;2024-03-29T01:21:36;2.90;;;0.60;;
9409;SDS011;4744;52.576;13.568;2024-03-29T01:24:02;1.25;;;0.50;;
9409;SDS011;4744;52.576;13.568;2024-03-29T01:26:28;1.17;;;0.60;;
9409;SDS011;4744;52.576;13.568;2024-03-29T01:28:54;1.45;;;0.40;;
9409;SDS011;4744;52.576;13.568;2024-03-29T01:31:21;1.17;;;0.55;;
9409;SDS011;4744;52.576;13.568;2024-03-29T01:33:48;3.05;;;0.68;;
9409;SDS011;4744;52.576;13.568;2024-03-29T01:36:14;2.78;;;0.60;;
9409;SDS011;4744;52.576;13.568;2024-03-29T01:38:41;0.77;;;0.43;;
9409;SDS011;4744;52.576;13.568;2024-03-29T01:41:07;1.23;;;0.60;;
9409;SDS011;4744;52.576;13.568;2024-03-29T01:43:33;1.33;;;0.60;;
9409;SDS011;4744;52.576;13.568;2024-03-29T01:46:00;0.90;;;0.40;;
9409;SDS011;4744;52.576;13.568;2024-03-29T01:48:28;0.68;;;0.65;;
9409;SDS011;4744;52.576;13.568;2024-03-29T01:50:56;2.50;;;0.60;;
9409;SDS011;4744;52.576;13.568;2024-03-29T01:53:24;1.90;;;0.70;;
9409;SDS011;4744;52.576;13.568;2024-03-29T01:55:53;1.38;;;0.70;;
9409;SDS011;4744;52.576;13.568;2024-03-29T01:58:20;2.58;;;1.00;;
9409;SDS011;4744;52.576;13.568;2024-03-29T02:00:50;1.33;;;0.80;;
9409;SDS011;4744;52.576;13.568;2024-03-29T02:03:19;1.00;;;0.73;;
9409;SDS011;4744;52.576;13.568;2024-03-29T02:05:46;1.55;;;0.90;;
9409;SDS011;4744;52.576;13.568;2024-03-29T02:08:14;1.35;;;0.65;;
9409;SDS011;4744;52.576;13.568;2024-03-29T02:10:41;3.67;;;1.00;;
9409;SDS011;4744;52.576;13.568;2024-03-29T02:13:10;1.00;;;0.93;;
9409;SDS011;4744;52.576;13.568;2024-03-29T02:15:38;1.70;;;0.93;;
9409;SDS011;4744;52.576;13.568;2024-03-29T02:18:06;1.48;;;0.60;;
9409;SDS011;4744;52.576;13.568;2024-03-29T02:20:33;3.33;;;0.90;;
9409;SDS011;4744;52.576;13.568;2024-03-29T02:23:03;2.05;;;0.88;;
9409;SDS011;4744;52.576;13.568;2024-03-29T02:25:34;3.72;;;0.90;;
9409;SDS011;4744;52.576;13.568;2024-03-29T02:28:01;2.33;;;0.98;;
9409;SDS011;4744;52.576;13.568;2024-03-29T02:30:29;1.23;;;0.95;;
9409;SDS011;4744;52.576;13.568;2024-03-29T02:32:56;1.20;;;0.82;;
9409;SDS011;4744;52.576;13.568;2024-03-29T02:35:23;1.55;;;0.77;;
9409;SDS011;4744;52.576;13.568;2024-03-29T02:37:50;1.58;;;0.90;;
9409;SDS011;4744;52.576;13.568;2024-03-29T02:40:17;1.45;;;0.77;;
9409;SDS011;4744;52.576;13.568;2024-03-29T02:42:45;2.10;;;1.00;;
9409;SDS011;4744;52.576;13.568;2024-03-29T02:45:13;1.15;;;0.82;;
9409;SDS011;4744;52.576;13.568;2024-03-29T02:47:40;2.47;;;1.27;;
9409;SDS011;4744;52.576;13.568;2024-03-29T02:50:08;4.70;;;1.10;;
9409;SDS011;4744;52.576;13.568;2024-03-29T02:52:35;1.73;;;1.10;;
9409;SDS011;4744;52.576;13.568;2024-03-29T02:55:02;2.38;;;1.10;;
9409;SDS011;4744;52.576;13.568;2024-03-29T02:57:28;2.05;;;1.00;;
9409;SDS011;4744;52.576;13.568;2024-03-29T02:59:56;1.13;;;1.00;;
9409;SDS011;4744;52.576;13.568;2024-03-29T03:02:22;2.13;;;0.95;;
9409;SDS011;4744;52.576;13.568;2024-03-29T03:04:49;2.78;;;0.98;;
9409;SDS011;4744;52.576;13.568;2024-03-29T03:07:15;2.05;;;1.15;;
9409;SDS011;4744;52.576;13.568;2024-03-29T03:09:59;2.85;;;1.30;;
9409;SDS011;4744;52.576;13.568;2024-03-29T03:12:44;1.75;;;0.90;;
9409;SDS011;4744;52.576;13.568;2024-03-29T03:15:12;1.88;;;1.08;;
9409;SDS011;4744;52.576;13.568;2024-03-29T03:17:39;1.95;;;1.20;;
9409;SDS011;4744;52.576;13.568;2024-03-29T03:20:06;3.13;;;1.77;;
9409;SDS011;4744;52.576;13.568;2024-03-29T03:22:34;1.15;;;1.05;;
9409;SDS011;4744;52.576;13.568;2024-03-29T03:25:01;3.30;;;1.27;;
9409;SDS011;4744;52.576;13.568;2024-03-29T03:27:27;2.10;;;1.05;;
9409;SDS011;4744;52.576;13.568;2024-03-29T03:29:53;2.63;;;1.10;;
9409;SDS011;4744;52.576;13.568;2024-03-29T03:32:22;1.90;;;1.20;;
9409;SDS011;4744;52.576;13.568;2024-03-29T03:34:47;2.70;;;1.30;;
9409;SDS011;4744;52.576;13.568;2024-03-29T03:37:14;3.72;;;1.35;;
9409;SDS011;4744;52.576;13.568;2024-03-29T03:39:40;1.70;;;1.27;;
9409;SDS011;4744;52.576;13.568;2024-03-29T03:42:07;2.30;;;1.38;;
9409;SDS011;4744;52.576;13.568;2024-03-29T03:44:33;1.25;;;1.00;;
9409;SDS011;4744;52.576;13.568;2024-03-29T03:47:00;1.40;;;1.00;;
9409;SDS011;4744;52.576;13.568;2024-03-29T03:49:27;3.35;;;0.98;;
9409;SDS011;4744;52.576;13.568;2024-03-29T03:51:54;3.53;;;1.20;;
9409;SDS011;4744;52.576;13.568;2024-03-29T03:54:20;1.48;;;1.13;;
9409;SDS011;4744;52.576;13.568;2024-03-29T03:56:47;1.58;;;1.40;;
9409;SDS011;4744;52.576;13.568;2024-03-29T03:59:14;3.63;;;1.10;;
9409;SDS011;4744;52.576;13.568;2024-03-29T04:01:41;4.05;;;1.55;;
9409;SDS011;4744;52.576;13.568;2024-03-29T04:04:06;1.63;;;1.23;;
9409;SDS011;4744;52.576;13.568;2024-03-29T04:06:35;2.63;;;1.00;;
9409;SDS011;4744;52.576;13.568;2024-03-29T04:09:01;2.28;;;1.08;;
9409;SDS011;4744;52.576;13.568;2024-03-29T04:11:27;2.25;;;1.10;;
9409;SDS011;4744;52.576;13.568;2024-03-29T04:13:54;3.13;;;1.08;;
9409;SDS011;4744;52.576;13.568;2024-03-29T04:16:21;2.47;;;1.25;;
9409;SDS011;4744;52.576;13.568;2024-03-29T04:18:46;5.30;;;1.20;;
9409;SDS011;4744;52.576;13.568;2024-03-29T04:21:13;2.63;;;1.45;;
9409;SDS011;4744;52.576;13.568;2024-03-29T04:23:40;1.55;;;1.00;;
9409;SDS011;4744;52.576;13.568;2024-03-29T04:26:07;2.13;;;1.10;;
9409;SDS011;4744;52.576;13.568;2024-03-29T04:28:33;3.03;;;1.17;;
9409;SDS011;4744;52.576;13.568;2024-03-29T04:31:00;2.03;;;1.33;;
9409;SDS011;4744;52.576;13.568;2024-03-29T04:33:27;1.73;;;1.15;;
9409;SDS011;4744;52.576;13.568;2024-03-29T04:35:54;2.00;;;1.10;;
9409;SDS011;4744;52.576;13.568;2024-03-29T04:38:21;2.65;;;1.17;;
9409;SDS011;4744;52.576;13.568;2024-03-29T04:40:50;3.42;;;1.15;;
9409;SDS011;4744;52.576;13.568;2024-03-29T04:43:18;3.58;;;1.02;;
9409;SDS011;4744;52.576;13.568;2024-03-29T04:45:47;1.95;;;1.08;;
9409;SDS011;4744;52.576;13.568;2024-03-29T04:48:14;2.53;;;1.27;;
9409;SDS011;4744;52.576;13.568;2024-03-29T04:50:41;2.17;;;1.48;;
9409;SDS011;4744;52.576;13.568;2024-03-29T04:53:08;1.92;;;1.25;;
9409;SDS011;4744;52.576;13.568;2024-03-29T04:55:35;1.75;;;1.02;;
9409;SDS011;4744;52.576;13.568;2024-03-29T04:58:03;3.10;;;1.40;;
9409;SDS011;4744;52.576;13.568;2024-03-29T05:00:30;2.08;;;1.10;;
9409;SDS011;4744;52.576;13.568;2024-03-29T05:02:57;2.53;;;1.50;;
9409;SDS011;4744;52.576;13.568;2024-03-29T05:05:24;1.83;;;1.10;;
9409;SDS011;4744;52.576;13.568;2024-03-29T05:07:51;1.92;;;0.90;;
9409;SDS011;4744;52.576;13.568;2024-03-29T05:10:18;1.10;;;0.80;;
9409;SDS011;4744;52.576;13.568;2024-03-29T05:12:47;1.83;;;1.40;;
9409;SDS011;4744;52.576;13.568;2024-03-29T05:15:16;2.35;;;1.00;;
9409;SDS011;4744;52.576;13.568;2024-03-29T05:17:43;2.17;;;0.90;;
9409;SDS011;4744;52.576;13.568;2024-03-29T05:20:10;3.35;;;1.10;;
9409;SDS011;4744;52.576;13.568;2024-03-29T05:22:37;1.30;;;0.90;;
9409;SDS011;4744;52.576;13.568;2024-03-29T05:25:04;2.05;;;0.98;;
9409;SDS011;4744;52.576;13.568;2024-03-29T05:27:32;1.58;;;1.02;;
9409;SDS011;4744;52.576;13.568;2024-03-29T05:29:59;0.98;;;0.80;;
9409;SDS011;4744;52.576;13.568;2024-03-29T05:32:27;2.72;;;0.95;;
9409;SDS011;4744;52.576;13.568;2024-03-29T05:34:54;2.40;;;0.85;;
9409;SDS011;4744;52.576;13.568;2024-03-29T05:37:21;1.80;;;0.90;;
9409;SDS011;4744;52.576;13.568;2024-03-29T05:39:50;2.03;;;0.98;;
9409;SDS011;4744;52.576;13.568;2024-03-29T05:42:24;5.40;;;1.25;;
9409;SDS011;4744;52.576;13.568;2024-03-29T05:44:51;2.28;;;1.00;;
9409;SDS011;4744;52.576;13.568;2024-03-29T05:47:18;1.95;;;1.02;;
9409;SDS011;4744;52.576;13.568;2024-03-29T05:49:46;2.40;;;0.90;;
9409;SDS011;4744;52.576;13.568;2024-03-29T05:52:13;3.47;;;0.90;;
9409;SDS011;4744;52.576;13.568;2024-03-29T05:54:40;3.78;;;0.90;;
9409;SDS011;4744;52.576;13.568;2024-03-29T05:57:07;3.10;;;1.02;;
9409;SDS011;4744;52.576;13.568;2024-03-29T05:59:34;6.05;;;1.10;;
9409;SDS011;4744;52.576;13.568;2024-03-29T06:02:02;2.95;;;1.15;;
9409;SDS011;4744;52.576;13.568;2024-03-29T06:04:29;1.70;;;0.77;;
9409;SDS011;4744;52.576;13.568;2024-03-29T06:06:59;2.58;;;0.95;;
9409;SDS011;4744;52.576;13.568;2024-03-29T06:09:25;2.53;;;1.00;;
9409;SDS011;4744;52.576;13.568;2024-03-29T06:11:53;3.75;;;1.52;;
9409;SDS011;4744;52.576;13.568;2024-03-29T06:14:20;2.33;;;1.00;;
9409;SDS011;4744;52.576;13.568;2024-03-29T06:17:05;2.40;;;1.15;;
9409;SDS011;4744;52.576;13.568;2024-03-29T06:19:50;4.53;;;1.30;;
9409;SDS011;4744;52.576;13.568;2024-03-29T06:22:22;2.58;;;1.58;;
9409;SDS011;4744;52.576;13.568;2024-03-29T06:24:50;2.05;;;1.33;;
9409;SDS011;4744;52.576;13.568;2024-03-29T06:27:18;2.50;;;1.40;;
9409;SDS011;4744;52.576;13.568;2024-03-29T06:29:47;2.03;;;1.05;;
9409;SDS011;4744;52.576;13.568;2024-03-29T06:32:15;5.15;;;1.42;;
9409;SDS011;4744;52.576;13.568;2024-03-29T06:34:43;1.85;;;1.17;;
9409;SDS011;4744;52.576;13.568;2024-03-29T06:37:10;1.45;;;1.08;;
9409;SDS011;4744;52.576;13.568;2024-03-29T06:39:38;1.33;;;1.00;;
9409;SDS011;4744;52.576;13.568;2024-03-29T06:42:07;3.10;;;1.30;;
9409;SDS011;4744;52.576;13.568;2024-03-29T06:44:34;3.83;;;1.60;;
9409;SDS011;4744;52.576;13.568;2024-03-29T06:47:01;3.30;;;1.00;;
9409;SDS011;4744;52.576;13.568;2024-03-29T06:49:28;2.83;;;1.10;;
9409;SDS011;4744;52.576;13.568;2024-03-29T06:51:57;2.17;;;1.17;;
9409;SDS011;4744;52.576;13.568;2024-03-29T06:54:26;1.92;;;1.35;;
9409;SDS011;4744;52.576;13.568;2024-03-29T06:56:54;1.80;;;1.23;;
9409;SDS011;4744;52.576;13.568;2024-03-29T06:59:22;1.80;;;1.42;;
9409;SDS011;4744;52.576;13.568;2024-03-29T07:01:49;2.08;;;1.00;;
9409;SDS011;4744;52.576;13.568;2024-03-29T07:04:17;2.00;;;1.42;;
9409;SDS011;4744;52.576;13.568;2024-03-29T07:06:45;2.30;;;1.08;;
9409;SDS011;4744;52.576;13.568;2024-03-29T07:09:15;3.00;;;1.10;;
9409;SDS011;4744;52.576;13.568;2024-03-29T07:11:42;1.95;;;1.02;;
9409;SDS011;4744;52.576;13.568;2024-03-29T07:14:10;3.10;;;1.30;;
9409;SDS011;4744;52.576;13.568;2024-03-29T07:16:37;2.38;;;1.35;;
9409;SDS011;4744;52.576;13.568;2024-03-29T07:19:04;3.05;;;1.20;;
9409;SDS011;4744;52.576;13.568;2024-03-29T07:21:31;1.60;;;1.10;;
9409;SDS011;4744;52.576;13.568;2024-03-29T07:23:58;3.42;;;1.10;;
9409;SDS011;4744;52.576;13.568;2024-03-29T07:26:25;4.47;;;1.27;;
9409;SDS011;4744;52.576;13.568;2024-03-29T07:28:52;1.30;;;0.88;;
9409;SDS011;4744;52.576;13.568;2024-03-29T07:31:20;1.35;;;0.95;;
9409;SDS011;4744;52.576;13.568;2024-03-29T07:33:47;3.20;;;1.17;;
9409;SDS011;4744;52.576;13.568;2024-03-29T07:36:14;1.95;;;1.10;;
9409;SDS011;4744;52.576;13.568;2024-03-29T07:38:41;1.75;;;0.90;;
9409;SDS011;4744;52.576;13.568;2024-03-29T07:41:09;3.50;;;1.40;;
9409;SDS011;4744;52.576;13.568;2024-03-29T07:43:37;1.20;;;0.82;;
9409;SDS011;4744;52.576;13.568;2024-03-29T07:46:06;2.63;;;1.00;;
9409;SDS011;4744;52.576;13.568;2024-03-29T07:48:35;2.38;;;0.93;;
9409;SDS011;4744;52.576;13.568;2024-03-29T07:51:02;1.38;;;0.88;;
9409;SDS011;4744;52.576;13.568;2024-03-29T07:53:29;2.40;;;1.00;;
9409;SDS011;4744;52.576;13.568;2024-03-29T07:55:56;3.50;;;1.00;;
9409;SDS011;4744;52.576;13.568;2024-03-29T07:58:23;2.25;;;0.73;;
9409;SDS011;4744;52.576;13.568;2024-03-29T08:00:51;2.40;;;0.82;;
9409;SDS011;4744;52.576;13.568;2024-03-29T08:03:18;3.30;;;0.70;;
9409;SDS011;4744;52.576;13.568;2024-03-29T08:05:56;3.78;;;0.75;;
9409;SDS011;4744;52.576;13.568;2024-03-29T08:08:23;3.08;;;0.95;;
9409;SDS011;4744;52.576;13.568;2024-03-29T08:10:52;2.38;;;0.80;;
9409;SDS011;4744;52.576;13.568;2024-03-29T08:13:19;2.47;;;0.70;;
9409;SDS011;4744;52.576;13.568;2024-03-29T08:15:47;2.90;;;0.70;;
9409;SDS011;4744;52.576;13.568;2024-03-29T08:18:14;1.35;;;0.90;;
9409;SDS011;4744;52.576;13.568;2024-03-29T08:20:41;1.30;;;0.60;;
9409;SDS011;4744;52.576;13.568;2024-03-29T08:23:10;1.15;;;0.68;;
9409;SDS011;4744;52.576;13.568;2024-03-29T08:28:04;0.80;;;0.50;;
9409;SDS011;4744;52.576;13.568;2024-03-29T08:30:31;2.55;;;0.60;;
9409;SDS011;4744;52.576;13.568;2024-03-29T08:33:01;4.78;;;0.57;;
9409;SDS011;4744;52.576;13.568;2024-03-29T08:35:28;0.80;;;0.55;;
9409;SDS011;4744;52.576;13.568;2024-03-29T08:37:55;5.25;;;0.80;;
9409;SDS011;4744;52.576;13.568;2024-03-29T08:40:24;1.30;;;0.73;;
9409;SDS011;4744;52.576;13.568;2024-03-29T08:42:54;1.20;;;0.52;;
9409;SDS011;4744;52.576;13.568;2024-03-29T08:45:21;1.17;;;0.57;;
9409;SDS011;4744;52.576;13.568;2024-03-29T08:47:48;1.52;;;0.45;;
9409;SDS011;4744;52.576;13.568;2024-03-29T08:50:15;1.08;;;0.70;;
9409;SDS011;4744;52.576;13.568;2024-03-29T08:52:44;3.90;;;0.82;;
9409;SDS011;4744;52.576;13.568;2024-03-29T08:55:10;1.75;;;0.60;;
9409;SDS011;4744;52.576;13.568;2024-03-29T08:57:39;2.50;;;0.85;;
9409;SDS011;4744;52.576;13.568;2024-03-29T09:00:08;1.65;;;0.70;;
9409;SDS011;4744;52.576;13.568;2024-03-29T09:02:35;1.40;;;0.68;;
9409;SDS011;4744;52.576;13.568;2024-03-29T09:05:02;1.30;;;0.73;;
9409;SDS011;4744;52.576;13.568;2024-03-29T09:07:30;2.58;;;0.75;;
9409;SDS011;4744;52.576;13.568;2024-03-29T09:09:56;0.90;;;0.60;;
9409;SDS011;4744;52.576;13.568;2024-03-29T09:12:23;2.33;;;1.05;;
9409;SDS011;4744;52.576;13.568;2024-03-29T09:14:52;2.72;;;0.52;;
9409;SDS011;4744;52.576;13.568;2024-03-29T09:17:19;2.10;;;0.60;;
9409;SDS011;4744;52.576;13.568;2024-03-29T09:19:49;1.77;;;1.00;;
9409;SDS011;4744;52.576;13.568;2024-03-29T09:22:17;2.08;;;0.63;;
9409;SDS011;4744;52.576;13.568;2024-03-29T09:24:44;0.95;;;0.50;;
9409;SDS011;4744;52.576;13.568;2024-03-29T09:27:11;1.42;;;0.50;;
9409;SDS011;4744;52.576;13.568;2024-03-29T09:29:37;1.73;;;0.85;;
9409;SDS011;4744;52.576;13.568;2024-03-29T09:32:06;1.85;;;0.73;;
9409;SDS011;4744;52.576;13.568;2024-03-29T09:34:33;2.13;;;0.70;;
9409;SDS011;4744;52.576;13.568;2024-03-29T09:37:00;1.42;;;0.55;;
9409;SDS011;4744;52.576;13.568;2024-03-29T09:39:27;7.07;;;0.95;;
9409;SDS011;4744;52.576;13.568;2024-03-29T09:41:54;1.02;;;0.57;;
9409;SDS011;4744;52.576;13.568;2024-03-29T09:44:25;0.63;;;0.50;;
9409;SDS011;4744;52.576;13.568;2024-03-29T09:46:57;1.52;;;0.77;;
9409;SDS011;4744;52.576;13.568;2024-03-29T09:49:29;3.03;;;0.50;;
9409;SDS011;4744;52.576;13.568;2024-03-29T09:51:57;4.20;;;1.08;;
9409;SDS011;4744;52.576;13.568;2024-03-29T09:54:26;1.33;;;0.52;;
9409;SDS011;4744;52.576;13.568;2024-03-29T09:56:54;2.40;;;0.65;;
9409;SDS011;4744;52.576;13.568;2024-03-29T09:59:22;2.63;;;0.82;;
9409;SDS011;4744;52.576;13.568;2024-03-29T10:01:51;2.15;;;0.60;;
9409;SDS011;4744;52.576;13.568;2024-03-29T10:04:21;2.58;;;0.68;;
9409;SDS011;4744;52.576;13.568;2024-03-29T10:06:51;3.08;;;0.88;;
9409;SDS011;4744;52.576;13.568;2024-03-29T10:11:46;1.02;;;0.70;;
9409;SDS011;4744;52.576;13.568;2024-03-29T10:14:13;2.08;;;1.00;;
9409;SDS011;4744;52.576;13.568;2024-03-29T10:16:40;1.67;;;0.68;;
9409;SDS011;4744;52.576;13.568;2024-03-29T10:19:08;3.90;;;0.80;;
9409;SDS011;4744;52.576;13.568;2024-03-29T10:21:37;1.27;;;0.47;;
9409;SDS011;4744;52.576;13.568;2024-03-29T10:24:12;3.20;;;0.70;;
9409;SDS011;4744;52.576;13.568;2024-03-29T10:26:40;1.50;;;0.55;;
9409;SDS011;4744;52.576;13.568;2024-03-29T10:29:07;1.60;;;0.70;;
9409;SDS011;4744;52.576;13.568;2024-03-29T10:31:34;1.38;;;0.75;;
9409;SDS011;4744;52.576;13.568;2024-03-29T10:34:02;2.53;;;0.80;;
9409;SDS011;4744;52.576;13.568;2024-03-29T10:36:30;1.48;;;0.73;;
9409;SDS011;4744;52.576;13.568;2024-03-29T10:39:00;2.97;;;0.52;;
9409;SDS011;4744;52.576;13.568;2024-03-29T10:41:37;1.10;;;0.57;;
9409;SDS011;4744;52.576;13.568;2024-03-29T10:44:07;2.60;;;0.60;;
9409;SDS011;4744;52.576;13.568;2024-03-29T10:46:36;2.72;;;0.75;;
9409;SDS011;4744;52.576;13.568;2024-03-29T10:49:04;1.10;;;0.60;;
9409;SDS011;4744;52.576;13.568;2024-03-29T10:51:34;1.90;;;0.80;;
9409;SDS011;4744;52.576;13.568;2024-03-29T10:54:04;0.77;;;0.43;;
9409;SDS011;4744;52.576;13.568;2024-03-29T10:56:32;1.52;;;0.73;;
9409;SDS011;4744;52.576;13.568;2024-03-29T10:59:12;0.68;;;0.50;;
9409;SDS011;4744;52.576;13.568;2024-03-29T11:01:49;1.88;;;0.57;;
9409;SDS011;4744;52.576;13.568;2024-03-29T11:04:22;1.90;;;0.50;;
9409;SDS011;4744;52.576;13.568;2024-03-29T11:06:57;1.20;;;0.55;;
9409;SDS011;4744;52.576;13.568;2024-03-29T11:09:28;1.05;;;0.50;;
9409;SDS011;4744;52.576;13.568;2024-03-29T11:11:57;1.27;;;0.60;;
9409;SDS011;4744;52.576;13.568;2024-03-29T11:14:29;1.38;;;0.70;;
9409;SDS011;4744;52.576;13.568;2024-03-29T11:17:02;1.20;;;0.60;;
9409;SDS011;4744;52.576;13.568;2024-03-29T11:19:30;0.70;;;0.60;;
9409;SDS011;4744;52.576;13.568;2024-03-29T11:21:57;1.13;;;0.47;;
9409;SDS011;4744;52.576;13.568;2024-03-29T11:24:26;1.73;;;0.52;;
9409;SDS011;4744;52.576;13.568;2024-03-29T11:29:24;1.00;;;0.40;;
9409;SDS011;4744;52.576;13.568;2024-03-29T11:31:58;1.42;;;0.60;;
9409;SDS011;4744;52.576;13.568;2024-03-29T11:34:25;1.88;;;0.45;;
9409;SDS011;4744;52.576;13.568;2024-03-29T11:37:05;1.90;;;0.68;;
9409;SDS011;4744;52.576;13.568;2024-03-29T11:39:33;1.30;;;0.55;;
9409;SDS011;4744;52.576;13.568;2024-03-29T11:42:01;0.50;;;0.47;;
9409;SDS011;4744;52.576;13.568;2024-03-29T11:44:28;0.60;;;0.40;;
9409;SDS011;4744;52.576;13.568;2024-03-29T11:46:56;1.30;;;0.60;;
9409;SDS011;4744;52.576;13.568;2024-03-29T11:49:25;2.22;;;0.93;;
9409;SDS011;4744;52.576;13.568;2024-03-29T11:52:01;0.73;;;0.50;;
9409;SDS011;4744;52.576;13.568;2024-03-29T11:54:36;0.75;;;0.40;;
9409;SDS011;4744;52.576;13.568;2024-03-29T11:57:04;0.73;;;0.43;;
9409;SDS011;4744;52.576;13.568;2024-03-29T11:59:31;0.60;;;0.50;;
9409;SDS011;4744;52.576;13.568;2024-03-29T12:01:59;0.68;;;0.55;;
9409;SDS011;4744;52.576;13.568;2024-03-29T12:04:26;2.70;;;0.75;;
9409;SDS011;4744;52.576;13.568;2024-03-29T12:06:53;1.30;;;0.50;;
9409;SDS011;4744;52.576;13.568;2024-03-29T12:09:20;2.55;;;1.08;;
9409;SDS011;4744;52.576;13.568;2024-03-29T12:11:47;1.63;;;0.47;;
9409;SDS011;4744;52.576;13.568;2024-03-29T12:14:15;1.00;;;0.52;;
9409;SDS011;4744;52.576;13.568;2024-03-29T12:16:43;1.70;;;0.60;;
9409;SDS011;4744;52.576;13.568;2024-03-29T12:19:21;3.35;;;0.63;;
9409;SDS011;4744;52.576;13.568;2024-03-29T12:21:48;2.33;;;0.80;;
9409;SDS011;4744;52.576;13.568;2024-03-29T12:24:16;1.38;;;0.40;;
9409;SDS011;4744;52.576;13.568;2024-03-29T12:26:43;0.63;;;0.30;;
9409;SDS011;4744;52.576;13.568;2024-03-29T12:29:10;1.40;;;0.60;;
9409;SDS011;4744;52.576;13.568;2024-03-29T12:31:37;0.80;;;0.47;;
9409;SDS011;4744;52.576;13.568;2024-03-29T12:34:04;1.75;;;0.50;;
9409;SDS011;4744;52.576;13.568;2024-03-29T12:36:33;1.05;;;0.40;;
9409;SDS011;4744;52.576;13.568;2024-03-29T12:41:28;2.35;;;0.65;;
9409;SDS011;4744;52.576;13.568;2024-03-29T12:43:55;2.10;;;0.63;;
9409;SDS011;4744;52.576;13.568;2024-03-29T12:46:22;3.03;;;0.60;;
9409;SDS011;4744;52.576;13.568;2024-03-29T12:48:56;0.65;;;0.50;;
9409;SDS011;4744;52.576;13.568;2024-03-29T12:51:24;3.03;;;0.60;;
9409;SDS011;4744;52.576;13.568;2024-03-29T12:53:52;0.82;;;0.43;;
9409;SDS011;4744;52.576;13.568;2024-03-29T12:56:20;0.75;;;0.47;;
9409;SDS011;4744;52.576;13.568;2024-03-29T12:58:47;1.00;;;0.50;;
9409;SDS011;4744;52.576;13.568;2024-03-29T13:01:14;2.17;;;0.70;;
9409;SDS011;4744;52.576;13.568;2024-03-29T13:03:41;1.75;;;0.50;;
9409;SDS011;4744;52.576;13.568;2024-03-29T13:06:09;2.60;;;0.68;;
9409;SDS011;4744;52.576;13.568;2024-03-29T13:08:36;2.53;;;0.57;;
9409;SDS011;4744;52.576;13.568;2024-03-29T13:11:04;0.88;;;0.50;;
9409;SDS011;4744;52.576;13.568;2024-03-29T13:13:32;2.83;;;0.70;;
9409;SDS011;4744;52.576;13.568;2024-03-29T13:15:59;1.15;;;0.50;;
9409;SDS011;4744;52.576;13.568;2024-03-29T13:18:26;0.63;;;0.45;;
9409;SDS011;4744;52.576;13.568;2024-03-29T13:20:53;1.55;;;0.65;;
9409;SDS011;4744;52.576;13.568;2024-03-29T13:23:21;1.80;;;0.63;;
9409;SDS011;4744;52.576;13.568;2024-03-29T13:25:48;0.93;;;0.50;;
9409;SDS011;4744;52.576;13.568;2024-03-29T13:28:17;2.15;;;0.70;;
9409;SDS011;4744;52.576;13.568;2024-03-29T13:30:44;1.20;;;0.40;;
9409;SDS011;4744;52.576;13.568;2024-03-29T13:33:13;0.73;;;0.47;;
9409;SDS011;4744;52.576;13.568;2024-03-29T13:35:41;1.27;;;0.60;;
9409;SDS011;4744;52.576;13.568;2024-03-29T13:38:09;2.08;;;0.60;;
9409;SDS011;4744;52.576;13.568;2024-03-29T13:40:36;1.33;;;0.40;;
9409;SDS011;4744;52.576;13.568;2024-03-29T13:43:05;2.90;;;0.68;;
9409;SDS011;4744;52.576;13.568;2024-03-29T13:45:34;1.02;;;0.63;;
9409;SDS011;4744;52.576;13.568;2024-03-29T13:48:00;2.05;;;0.60;;
9409;SDS011;4744;52.576;13.568;2024-03-29T13:50:27;0.77;;;0.47;;
9409;SDS011;4744;52.576;13.568;2024-03-29T13:52:54;3.25;;;0.50;;
9409;SDS011;4744;52.576;13.568;2024-03-29T13:55:21;0.73;;;0.63;;
9409;SDS011;4744;52.576;13.568;2024-03-29T13:57:50;1.45;;;0.60;;
9409;SDS011;4744;52.576;13.568;2024-03-29T14:00:18;1.08;;;0.65;;
9409;SDS011;4744;52.576;13.568;2024-03-29T14:02:46;0.90;;;0.50;;
9409;SDS011;4744;52.576;13.568;2024-03-29T14:05:13;1.00;;;0.40;;
9409;SDS011;4744;52.576;13.568;2024-03-29T14:07:40;0.80;;;0.40;;
9409;SDS011;4744;52.576;13.568;2024-03-29T14:10:07;1.17;;;0.60;;
9409;SDS011;4744;52.576;13.568;2024-03-29T14:12:35;1.80;;;0.60;;
9409;SDS011;4744;52.576;13.568;2024-03-29T14:15:02;1.50;;;0.60;;
9409;SDS011;4744;52.576;13.568;2024-03-29T14:17:31;1.80;;;1.52;;
9409;SDS011;4744;52.576;13.568;2024-03-29T14:19:59;0.85;;;0.50;;
9409;SDS011;4744;52.576;13.568;2024-03-29T14:22:26;1.90;;;0.52;;
9409;SDS011;4744;52.576;13.568;2024-03-29T14:24:54;3.70;;;0.55;;
9409;SDS011;4744;52.576;13.568;2024-03-29T14:27:21;2.38;;;0.80;;
9409;SDS011;4744;52.576;13.568;2024-03-29T14:29:49;1.83;;;0.63;;
9409;SDS011;4744;52.576;13.568;2024-03-29T14:32:16;4.88;;;0.77;;
9409;SDS011;4744;52.576;13.568;2024-03-29T14:34:43;2.05;;;0.50;;
9409;SDS011;4744;52.576;13.568;2024-03-29T14:37:13;1.20;;;0.65;;
9409;SDS011;4744;52.576;13.568;2024-03-29T14:39:40;6.32;;;1.10;;
9409;SDS011;4744;52.576;13.568;2024-03-29T14:42:09;2.90;;;1.35;;
9409;SDS011;4744;52.576;13.568;2024-03-29T14:44:38;0.95;;;0.68;;
9409;SDS011;4744;52.576;13.568;2024-03-29T14:47:05;2.72;;;0.60;;
9409;SDS011;4744;52.576;13.568;2024-03-29T14:49:32;0.95;;;0.73;;
9409;SDS011;4744;52.576;13.568;2024-03-29T14:51:59;3.92;;;1.85;;
9409;SDS011;4744;52.576;13.568;2024-03-29T14:54:27;3.60;;;0.90;;
9409;SDS011;4744;52.576;13.568;2024-03-29T14:56:54;1.40;;;0.65;;
9409;SDS011;4744;52.576;13.568;2024-03-29T14:59:21;0.70;;;0.40;;
9409;SDS011;4744;52.576;13.568;2024-03-29T15:01:48;2.90;;;0.52;;
9409;SDS011;4744;52.576;13.568;2024-03-29T15:04:15;2.22;;;0.60;;
9409;SDS011;4744;52.576;13.568;2024-03-29T15:06:42;1.17;;;0.50;;
9409;SDS011;4744;52.576;13.568;2024-03-29T15:09:08;5.90;;;1.45;;
9409;SDS011;4744;52.576;13.568;2024-03-29T15:11:36;0.90;;;0.45;;
9409;SDS011;4744;52.576;13.568;2024-03-29T15:14:03;2.13;;;0.80;;